sensor_id;sensor_type;location;lat;lon;timestamp;pressure;altitude;pressure_sealevel;temperature
77789;BMP280;70537;44.384;0.512;2023-09-19T00:00:23;101638.66;;;16.94
77789;BMP280;70537;44.384;0.512;2023-09-19T00:02:57;101638.66;;;16.94
77789;BMP280;70537;44.384;0.512;2023-09-19T00:05:25;101640.59;;;17.10
77789;BMP280;70537;44.384;0.512;2023-09-19T00:07:56;101641.06;;;17.20
77789;BMP280;70537;44.384;0.512;2023-09-19T00:10:24;101640.78;;;17.29
77789;BMP280;70537;44.384;0.512;2023-09-19T00:12:55;101644.00;;;17.33
77789;BMP280;70537;44.384;0.512;2023-09-19T00:15:23;101637.78;;;17.33
77789;BMP280;70537;44.384;0.512;2023-09-19T00:17:49;101637.75;;;17.38
77789;BMP280;70537;44.384;0.512;2023-09-19T00:20:17;101641.22;;;17.39
77789;BMP280;70537;44.384;0.512;2023-09-19T00:22:43;101643.75;;;17.37
77789;BMP280;70537;44.384;0.512;2023-09-19T00:25:09;101637.28;;;17.34
77789;BMP280;70537;44.384;0.512;2023-09-19T00:27:37;101647.78;;;17.30
77789;BMP280;70537;44.384;0.512;2023-09-19T00:30:08;101646.50;;;17.31
77789;BMP280;70537;44.384;0.512;2023-09-19T00:32:39;101639.81;;;17.27
77789;BMP280;70537;44.384;0.512;2023-09-19T00:35:05;101644.31;;;17.24
77789;BMP280;70537;44.384;0.512;2023-09-19T00:37:31;101650.03;;;17.20
77789;BMP280;70537;44.384;0.512;2023-09-19T00:39:56;101637.59;;;17.14
77789;BMP280;70537;44.384;0.512;2023-09-19T00:42:22;101647.09;;;17.13
77789;BMP280;70537;44.384;0.512;2023-09-19T00:44:48;101635.38;;;17.12
77789;BMP280;70537;44.384;0.512;2023-09-19T00:47:16;101634.63;;;17.12
77789;BMP280;70537;44.384;0.512;2023-09-19T00:49:43;101632.63;;;17.12
77789;BMP280;70537;44.384;0.512;2023-09-19T00:52:10;101635.38;;;17.12
77789;BMP280;70537;44.384;0.512;2023-09-19T00:54:37;101633.38;;;17.13
77789;BMP280;70537;44.384;0.512;2023-09-19T00:57:03;101633.09;;;17.16
77789;BMP280;70537;44.384;0.512;2023-09-19T00:59:29;101638.59;;;17.16
77789;BMP280;70537;44.384;0.512;2023-09-19T01:01:56;101623.41;;;17.15
77789;BMP280;70537;44.384;0.512;2023-09-19T01:04:22;101629.38;;;17.14
77789;BMP280;70537;44.384;0.512;2023-09-19T01:06:48;101627.88;;;17.13
77789;BMP280;70537;44.384;0.512;2023-09-19T01:09:19;101626.13;;;17.15
77789;BMP280;70537;44.384;0.512;2023-09-19T01:11:48;101631.16;;;17.11
77789;BMP280;70537;44.384;0.512;2023-09-19T01:14:28;101635.88;;;17.11
77789;BMP280;70537;44.384;0.512;2023-09-19T01:17:15;101638.84;;;17.13
77789;BMP280;70537;44.384;0.512;2023-09-19T01:23:17;101638.34;;;17.09
77789;BMP280;70537;44.384;0.512;2023-09-19T01:29:01;101648.09;;;17.04
77789;BMP280;70537;44.384;0.512;2023-09-19T01:31:33;101641.66;;;16.96
77789;BMP280;70537;44.384;0.512;2023-09-19T01:34:03;101642.44;;;16.91
77789;BMP280;70537;44.384;0.512;2023-09-19T01:36:36;101642.19;;;16.89
77789;BMP280;70537;44.384;0.512;2023-09-19T01:39:12;101634.94;;;16.91
77789;BMP280;70537;44.384;0.512;2023-09-19T01:44:25;101633.69;;;16.92
77789;BMP280;70537;44.384;0.512;2023-09-19T01:46:58;101632.72;;;16.84
77789;BMP280;70537;44.384;0.512;2023-09-19T01:49:37;101638.22;;;16.78
77789;BMP280;70537;44.384;0.512;2023-09-19T01:52:12;101639.22;;;16.75
77789;BMP280;70537;44.384;0.512;2023-09-19T01:55:02;101632.72;;;16.73
77789;BMP280;70537;44.384;0.512;2023-09-19T02:00:07;101626.25;;;16.82
77789;BMP280;70537;44.384;0.512;2023-09-19T02:02:37;101644.19;;;16.77
77789;BMP280;70537;44.384;0.512;2023-09-19T02:05:04;101630.00;;;16.67
77789;BMP280;70537;44.384;0.512;2023-09-19T02:07:30;101634.75;;;16.61
77789;BMP280;70537;44.384;0.512;2023-09-19T02:09:59;101630.00;;;16.56
77789;BMP280;70537;44.384;0.512;2023-09-19T02:12:35;101629.78;;;16.54
77789;BMP280;70537;44.384;0.512;2023-09-19T02:15:01;101637.50;;;16.56
77789;BMP280;70537;44.384;0.512;2023-09-19T02:17:26;101635.25;;;16.54
77789;BMP280;70537;44.384;0.512;2023-09-19T02:19:54;101635.03;;;16.52
77789;BMP280;70537;44.384;0.512;2023-09-19T02:22:21;101641.00;;;16.50
77789;BMP280;70537;44.384;0.512;2023-09-19T02:24:48;101639.00;;;16.45
77789;BMP280;70537;44.384;0.512;2023-09-19T02:27:13;101643.00;;;16.44
77789;BMP280;70537;44.384;0.512;2023-09-19T02:29:41;101636.53;;;16.42
77789;BMP280;70537;44.384;0.512;2023-09-19T02:32:07;101637.53;;;16.44
77789;BMP280;70537;44.384;0.512;2023-09-19T02:34:32;101635.28;;;16.43
77789;BMP280;70537;44.384;0.512;2023-09-19T02:37:04;101636.53;;;16.42
77789;BMP280;70537;44.384;0.512;2023-09-19T02:39:31;101630.28;;;16.41
77789;BMP280;70537;44.384;0.512;2023-09-19T02:41:56;101632.03;;;16.39
77789;BMP280;70537;44.384;0.512;2023-09-19T02:44:22;101640.00;;;16.37
77789;BMP280;70537;44.384;0.512;2023-09-19T02:46:49;101631.53;;;16.40
77789;BMP280;70537;44.384;0.512;2023-09-19T02:49:15;101637.78;;;16.46
77789;BMP280;70537;44.384;0.512;2023-09-19T02:51:40;101636.78;;;16.49
77789;BMP280;70537;44.384;0.512;2023-09-19T02:54:06;101625.81;;;16.49
77789;BMP280;70537;44.384;0.512;2023-09-19T02:56:32;101633.78;;;16.53
77789;BMP280;70537;44.384;0.512;2023-09-19T02:58:57;101624.53;;;16.56
77789;BMP280;70537;44.384;0.512;2023-09-19T03:01:25;101622.31;;;16.60
77789;BMP280;70537;44.384;0.512;2023-09-19T03:03:52;101621.78;;;16.62
77789;BMP280;70537;44.384;0.512;2023-09-19T03:06:18;101621.56;;;16.65
77789;BMP280;70537;44.384;0.512;2023-09-19T03:08:45;101622.31;;;16.60
77789;BMP280;70537;44.384;0.512;2023-09-19T03:11:12;101622.31;;;16.60
77789;BMP280;70537;44.384;0.512;2023-09-19T03:13:40;101618.81;;;16.60
77789;BMP280;70537;44.384;0.512;2023-09-19T03:16:07;101618.31;;;16.61
77789;BMP280;70537;44.384;0.512;2023-09-19T03:18:35;101608.63;;;16.55
77789;BMP280;70537;44.384;0.512;2023-09-19T03:21:01;101615.56;;;16.56
77789;BMP280;70537;44.384;0.512;2023-09-19T03:23:27;101606.38;;;16.53
77789;BMP280;70537;44.384;0.512;2023-09-19T03:25:54;101614.09;;;16.55
77789;BMP280;70537;44.384;0.512;2023-09-19T03:28:20;101608.13;;;16.45
77789;BMP280;70537;44.384;0.512;2023-09-19T03:31:00;101612.13;;;16.38
77789;BMP280;70537;44.384;0.512;2023-09-19T03:33:25;101611.63;;;16.28
77789;BMP280;70537;44.384;0.512;2023-09-19T03:35:54;101599.19;;;16.27
77789;BMP280;70537;44.384;0.512;2023-09-19T03:38:20;101610.88;;;16.28
77789;BMP280;70537;44.384;0.512;2023-09-19T03:40:47;101614.13;;;16.32
77789;BMP280;70537;44.384;0.512;2023-09-19T03:43:14;101612.34;;;16.35
77789;BMP280;70537;44.384;0.512;2023-09-19T03:45:39;101617.34;;;16.36
77789;BMP280;70537;44.384;0.512;2023-09-19T03:48:11;101620.81;;;16.37
77789;BMP280;70537;44.384;0.512;2023-09-19T03:50:37;101613.38;;;16.32
77789;BMP280;70537;44.384;0.512;2023-09-19T03:53:03;101615.63;;;16.27
77789;BMP280;70537;44.384;0.512;2023-09-19T03:55:29;101615.84;;;16.24
77789;BMP280;70537;44.384;0.512;2023-09-19T03:57:57;101615.13;;;16.12
77789;BMP280;70537;44.384;0.512;2023-09-19T04:00:22;101606.16;;;16.06
77789;BMP280;70537;44.384;0.512;2023-09-19T04:02:52;101607.91;;;16.03
77789;BMP280;70537;44.384;0.512;2023-09-19T04:05:18;101611.63;;;16.00
77789;BMP280;70537;44.384;0.512;2023-09-19T04:07:43;101614.59;;;15.97
77789;BMP280;70537;44.384;0.512;2023-09-19T04:10:09;101612.38;;;15.95
77789;BMP280;70537;44.384;0.512;2023-09-19T04:12:37;101612.38;;;15.95
77789;BMP280;70537;44.384;0.512;2023-09-19T04:15:02;101613.38;;;15.98
77789;BMP280;70537;44.384;0.512;2023-09-19T04:17:28;101611.09;;;15.96
77789;BMP280;70537;44.384;0.512;2023-09-19T04:19:54;101612.88;;;15.99
77789;BMP280;70537;44.384;0.512;2023-09-19T04:22:19;101603.63;;;15.97
77789;BMP280;70537;44.384;0.512;2023-09-19T04:24:45;101608.63;;;15.93
77789;BMP280;70537;44.384;0.512;2023-09-19T04:27:10;101600.41;;;15.98
77789;BMP280;70537;44.384;0.512;2023-09-19T04:29:38;101606.63;;;15.99
77789;BMP280;70537;44.384;0.512;2023-09-19T04:32:04;101603.41;;;16.00
77789;BMP280;70537;44.384;0.512;2023-09-19T04:34:31;101599.44;;;15.96
77789;BMP280;70537;44.384;0.512;2023-09-19T04:36:56;101610.88;;;15.94
77789;BMP280;70537;44.384;0.512;2023-09-19T04:39:26;101601.16;;;15.93
77789;BMP280;70537;44.384;0.512;2023-09-19T04:41:52;101602.41;;;15.92
77789;BMP280;70537;44.384;0.512;2023-09-19T04:44:18;101598.44;;;15.93
77789;BMP280;70537;44.384;0.512;2023-09-19T04:46:43;101601.16;;;15.93
77789;BMP280;70537;44.384;0.512;2023-09-19T04:49:09;101606.66;;;15.93
77789;BMP280;70537;44.384;0.512;2023-09-19T04:51:35;101601.41;;;15.90
77789;BMP280;70537;44.384;0.512;2023-09-19T04:54:01;101601.91;;;15.88
77789;BMP280;70537;44.384;0.512;2023-09-19T04:56:28;101593.69;;;15.82
77789;BMP280;70537;44.384;0.512;2023-09-19T04:58:57;101598.91;;;15.80
77789;BMP280;70537;44.384;0.512;2023-09-19T05:01:24;101596.69;;;15.85
77789;BMP280;70537;44.384;0.512;2023-09-19T05:03:50;101597.41;;;15.85
77789;BMP280;70537;44.384;0.512;2023-09-19T05:06:18;101594.44;;;15.83
77789;BMP280;70537;44.384;0.512;2023-09-19T05:08:46;101608.84;;;15.78
77789;BMP280;70537;44.384;0.512;2023-09-19T05:11:12;101616.31;;;15.77
77789;BMP280;70537;44.384;0.512;2023-09-19T05:13:37;101610.59;;;15.70
77789;BMP280;70537;44.384;0.512;2023-09-19T05:16:03;101618.81;;;15.70
77789;BMP280;70537;44.384;0.512;2023-09-19T05:18:28;101621.53;;;15.75
77789;BMP280;70537;44.384;0.512;2023-09-19T05:20:54;101613.09;;;15.68
77789;BMP280;70537;44.384;0.512;2023-09-19T05:23:21;101626.03;;;15.73
77789;BMP280;70537;44.384;0.512;2023-09-19T05:25:46;101628.25;;;15.74
77789;BMP280;70537;44.384;0.512;2023-09-19T05:28:12;101631.50;;;15.73
77789;BMP280;70537;44.384;0.512;2023-09-19T05:30:40;101635.22;;;15.75
77789;BMP280;70537;44.384;0.512;2023-09-19T05:33:06;101620.56;;;15.73
77789;BMP280;70537;44.384;0.512;2023-09-19T05:35:33;101633.50;;;15.72
77789;BMP280;70537;44.384;0.512;2023-09-19T05:37:59;101629.50;;;15.73
77789;BMP280;70537;44.384;0.512;2023-09-19T05:40:25;101639.47;;;15.76
77789;BMP280;70537;44.384;0.512;2023-09-19T05:42:51;101632.00;;;15.77
77789;BMP280;70537;44.384;0.512;2023-09-19T05:45:17;101634.75;;;15.77
77789;BMP280;70537;44.384;0.512;2023-09-19T05:47:50;101642.97;;;15.77
77789;BMP280;70537;44.384;0.512;2023-09-19T05:50:16;101637.47;;;15.77
77789;BMP280;70537;44.384;0.512;2023-09-19T05:52:42;101649.47;;;15.91
77789;BMP280;70537;44.384;0.512;2023-09-19T05:55:11;101645.47;;;15.92
77789;BMP280;70537;44.384;0.512;2023-09-19T05:57:37;101653.97;;;15.99
77789;BMP280;70537;44.384;0.512;2023-09-19T06:00:08;101655.66;;;15.91
77789;BMP280;70537;44.384;0.512;2023-09-19T06:02:37;101647.72;;;15.93
77789;BMP280;70537;44.384;0.512;2023-09-19T06:05:04;101652.44;;;15.98
77789;BMP280;70537;44.384;0.512;2023-09-19T06:07:32;101657.94;;;16.04
77789;BMP280;70537;44.384;0.512;2023-09-19T06:10:05;101659.94;;;16.15
77789;BMP280;70537;44.384;0.512;2023-09-19T06:12:32;101660.41;;;16.13
77789;BMP280;70537;44.384;0.512;2023-09-19T06:15:03;101658.97;;;16.12
77789;BMP280;70537;44.384;0.512;2023-09-19T06:17:30;101666.91;;;16.10
77789;BMP280;70537;44.384;0.512;2023-09-19T06:19:56;101670.63;;;16.13
77789;BMP280;70537;44.384;0.512;2023-09-19T06:22:21;101663.19;;;16.19
77789;BMP280;70537;44.384;0.512;2023-09-19T06:24:47;101656.94;;;16.24
77789;BMP280;70537;44.384;0.512;2023-09-19T06:27:13;101662.44;;;16.29
77789;BMP280;70537;44.384;0.512;2023-09-19T06:29:39;101670.41;;;16.39
77789;BMP280;70537;44.384;0.512;2023-09-19T06:32:10;101666.66;;;16.47
77789;BMP280;70537;44.384;0.512;2023-09-19T06:34:36;101673.88;;;16.56
77789;BMP280;70537;44.384;0.512;2023-09-19T06:37:04;101675.38;;;16.63
77789;BMP280;70537;44.384;0.512;2023-09-19T06:39:31;101671.66;;;16.71
77789;BMP280;70537;44.384;0.512;2023-09-19T06:41:56;101668.63;;;16.81
77789;BMP280;70537;44.384;0.512;2023-09-19T06:44:22;101674.09;;;16.81
77789;BMP280;70537;44.384;0.512;2023-09-19T06:46:50;101676.34;;;16.82
77789;BMP280;70537;44.384;0.512;2023-09-19T06:49:17;101679.53;;;16.97
77789;BMP280;70537;44.384;0.512;2023-09-19T06:51:42;101675.31;;;17.02
77789;BMP280;70537;44.384;0.512;2023-09-19T06:54:09;101674.28;;;17.11
77789;BMP280;70537;44.384;0.512;2023-09-19T06:56:35;101669.50;;;17.22
77789;BMP280;70537;44.384;0.512;2023-09-19T06:59:00;101676.25;;;17.16
77789;BMP280;70537;44.384;0.512;2023-09-19T07:01:27;101662.06;;;17.17
77789;BMP280;70537;44.384;0.512;2023-09-19T07:03:53;101669.50;;;17.28
77789;BMP280;70537;44.384;0.512;2023-09-19T07:06:19;101667.72;;;17.31
77789;BMP280;70537;44.384;0.512;2023-09-19T07:08:44;101685.09;;;17.44
77789;BMP280;70537;44.384;0.512;2023-09-19T07:11:10;101680.31;;;17.56
77789;BMP280;70537;44.384;0.512;2023-09-19T07:13:38;101685.75;;;17.67
77789;BMP280;70537;44.384;0.512;2023-09-19T07:16:04;101671.47;;;17.74
77789;BMP280;70537;44.384;0.512;2023-09-19T07:18:30;101683.63;;;17.85
77789;BMP280;70537;44.384;0.512;2023-09-19T07:20:57;101684.31;;;17.96
77789;BMP280;70537;44.384;0.512;2023-09-19T07:23:26;101688.19;;;18.12
77789;BMP280;70537;44.384;0.512;2023-09-19T07:25:52;101693.84;;;18.26
77789;BMP280;70537;44.384;0.512;2023-09-19T07:28:18;101676.41;;;18.17
77789;BMP280;70537;44.384;0.512;2023-09-19T07:30:43;101687.75;;;18.38
77789;BMP280;70537;44.384;0.512;2023-09-19T07:33:09;101692.63;;;18.51
77789;BMP280;70537;44.384;0.512;2023-09-19T07:35:38;101690.56;;;18.57
77789;BMP280;70537;44.384;0.512;2023-09-19T07:38:05;101698.00;;;18.62
77789;BMP280;70537;44.384;0.512;2023-09-19T07:40:31;101701.00;;;18.64
77789;BMP280;70537;44.384;0.512;2023-09-19T07:42:56;101700.50;;;18.60
77789;BMP280;70537;44.384;0.512;2023-09-19T07:45:29;101693.09;;;18.80
77789;BMP280;70537;44.384;0.512;2023-09-19T07:47:55;101697.13;;;18.79
77789;BMP280;70537;44.384;0.512;2023-09-19T07:50:20;101698.75;;;18.87
77789;BMP280;70537;44.384;0.512;2023-09-19T07:52:50;101700.88;;;19.00
77789;BMP280;70537;44.384;0.512;2023-09-19T07:55:20;101698.72;;;19.12
77789;BMP280;70537;44.384;0.512;2023-09-19T07:57:49;101701.06;;;19.27
77789;BMP280;70537;44.384;0.512;2023-09-19T08:00:14;101698.66;;;19.36
77789;BMP280;70537;44.384;0.512;2023-09-19T08:02:40;101699.03;;;19.27
77789;BMP280;70537;44.384;0.512;2023-09-19T08:05:07;101700.00;;;19.49
77789;BMP280;70537;44.384;0.512;2023-09-19T08:07:45;101706.56;;;19.45
77789;BMP280;70537;44.384;0.512;2023-09-19T08:10:17;101703.19;;;19.34
77789;BMP280;70537;44.384;0.512;2023-09-19T08:12:46;101707.16;;;19.19
77789;BMP280;70537;44.384;0.512;2023-09-19T08:15:19;101703.50;;;19.11
77789;BMP280;70537;44.384;0.512;2023-09-19T08:17:45;101713.63;;;19.22
77789;BMP280;70537;44.384;0.512;2023-09-19T08:20:12;101700.38;;;19.39
77789;BMP280;70537;44.384;0.512;2023-09-19T08:22:50;101706.34;;;19.62
77789;BMP280;70537;44.384;0.512;2023-09-19T08:25:18;101699.88;;;19.92
77789;BMP280;70537;44.384;0.512;2023-09-19T08:27:46;101702.50;;;20.16
77789;BMP280;70537;44.384;0.512;2023-09-19T08:30:20;101702.50;;;20.16
77789;BMP280;70537;44.384;0.512;2023-09-19T08:32:50;101706.09;;;20.25
77789;BMP280;70537;44.384;0.512;2023-09-19T08:35:15;101705.59;;;20.26
77789;BMP280;70537;44.384;0.512;2023-09-19T08:37:42;101698.72;;;20.33
77789;BMP280;70537;44.384;0.512;2023-09-19T08:40:08;101701.81;;;20.56
77789;BMP280;70537;44.384;0.512;2023-09-19T08:42:55;101695.53;;;20.82
77789;BMP280;70537;44.384;0.512;2023-09-19T08:45:21;101696.59;;;20.92
77789;BMP280;70537;44.384;0.512;2023-09-19T08:50:27;101707.63;;;21.05
77789;BMP280;70537;44.384;0.512;2023-09-19T08:53:00;101713.22;;;21.26
77789;BMP280;70537;44.384;0.512;2023-09-19T08:55:29;101711.66;;;21.52
77789;BMP280;70537;44.384;0.512;2023-09-19T08:58:00;101712.13;;;21.63
77789;BMP280;70537;44.384;0.512;2023-09-19T09:00:27;101706.97;;;21.47
77789;BMP280;70537;44.384;0.512;2023-09-19T09:02:54;101708.00;;;21.57
77789;BMP280;70537;44.384;0.512;2023-09-19T09:05:22;101704.19;;;21.60
77789;BMP280;70537;44.384;0.512;2023-09-19T09:07:49;101709.97;;;21.69
77789;BMP280;70537;44.384;0.512;2023-09-19T09:10:18;101704.91;;;21.81
77789;BMP280;70537;44.384;0.512;2023-09-19T09:12:58;101706.47;;;21.90
77789;BMP280;70537;44.384;0.512;2023-09-19T09:15:24;101721.75;;;21.91
77789;BMP280;70537;44.384;0.512;2023-09-19T09:17:50;101707.81;;;21.97
77789;BMP280;70537;44.384;0.512;2023-09-19T09:20:18;101714.59;;;22.16
77789;BMP280;70537;44.384;0.512;2023-09-19T09:22:51;101710.44;;;22.23
77789;BMP280;70537;44.384;0.512;2023-09-19T09:25:18;101714.41;;;22.43
77789;BMP280;70537;44.384;0.512;2023-09-19T09:27:48;101715.06;;;22.64
77789;BMP280;70537;44.384;0.512;2023-09-19T09:33:12;101710.34;;;23.47
77789;BMP280;70537;44.384;0.512;2023-09-19T09:35:53;101708.88;;;23.38
77789;BMP280;70537;44.384;0.512;2023-09-19T09:38:23;101702.63;;;23.53
77789;BMP280;70537;44.384;0.512;2023-09-19T09:40:59;101706.75;;;22.93
77789;BMP280;70537;44.384;0.512;2023-09-19T09:43:33;101699.66;;;22.77
77789;BMP280;70537;44.384;0.512;2023-09-19T09:46:16;101699.84;;;23.45
77789;BMP280;70537;44.384;0.512;2023-09-19T09:48:55;101699.91;;;23.09
77789;BMP280;70537;44.384;0.512;2023-09-19T09:54:23;101701.19;;;22.93
77789;BMP280;70537;44.384;0.512;2023-09-19T09:56:56;101703.34;;;23.38
77789;BMP280;70537;44.384;0.512;2023-09-19T09:59:45;101700.06;;;23.70
77789;BMP280;70537;44.384;0.512;2023-09-19T10:02:16;101707.06;;;23.56
77789;BMP280;70537;44.384;0.512;2023-09-19T10:04:56;101705.38;;;23.99
77789;BMP280;70537;44.384;0.512;2023-09-19T10:07:48;101702.91;;;24.49
77789;BMP280;70537;44.384;0.512;2023-09-19T10:10:31;101693.56;;;24.69
77789;BMP280;70537;44.384;0.512;2023-09-19T10:13:10;101683.91;;;24.70
77789;BMP280;70537;44.384;0.512;2023-09-19T10:15:39;101692.84;;;25.01
77789;BMP280;70537;44.384;0.512;2023-09-19T10:18:10;101705.38;;;25.35
77789;BMP280;70537;44.384;0.512;2023-09-19T10:20:37;101691.41;;;25.43
77789;BMP280;70537;44.384;0.512;2023-09-19T10:23:08;101695.66;;;25.44
77789;BMP280;70537;44.384;0.512;2023-09-19T10:25:39;101699.88;;;25.52
77789;BMP280;70537;44.384;0.512;2023-09-19T10:28:10;101691.69;;;25.97
77789;BMP280;70537;44.384;0.512;2023-09-19T10:30:47;101685.44;;;25.89
77789;BMP280;70537;44.384;0.512;2023-09-19T10:33:16;101689.19;;;26.35
77789;BMP280;70537;44.384;0.512;2023-09-19T10:35:45;101684.97;;;26.34
77789;BMP280;70537;44.384;0.512;2023-09-19T10:38:12;101690.41;;;25.98
77789;BMP280;70537;44.384;0.512;2023-09-19T10:40:38;101681.47;;;26.17
77789;BMP280;70537;44.384;0.512;2023-09-19T10:43:16;101678.00;;;25.91
77789;BMP280;70537;44.384;0.512;2023-09-19T10:45:46;101681.72;;;25.94
77789;BMP280;70537;44.384;0.512;2023-09-19T10:48:15;101680.22;;;26.27
77789;BMP280;70537;44.384;0.512;2023-09-19T10:50:52;101685.56;;;26.87
77789;BMP280;70537;44.384;0.512;2023-09-19T10:53:20;101679.28;;;26.96
77789;BMP280;70537;44.384;0.512;2023-09-19T10:55:55;101678.22;;;26.37
77789;BMP280;70537;44.384;0.512;2023-09-19T10:58:31;101680.19;;;25.58
77789;BMP280;70537;44.384;0.512;2023-09-19T11:01:02;101675.13;;;26.16
77789;BMP280;70537;44.384;0.512;2023-09-19T11:03:31;101667.66;;;26.19
77789;BMP280;70537;44.384;0.512;2023-09-19T11:06:14;101673.88;;;26.71
77789;BMP280;70537;44.384;0.512;2023-09-19T11:09:03;101670.63;;;26.65
77789;BMP280;70537;44.384;0.512;2023-09-19T11:11:41;101661.97;;;26.98
77789;BMP280;70537;44.384;0.512;2023-09-19T11:14:28;101659.41;;;27.09
77789;BMP280;70537;44.384;0.512;2023-09-19T11:30:36;101645.75;;;27.13
77789;BMP280;70537;44.384;0.512;2023-09-19T11:36:13;101640.53;;;27.37
77789;BMP280;70537;44.384;0.512;2023-09-19T11:49:28;101613.41;;;27.95
77789;BMP280;70537;44.384;0.512;2023-09-19T11:51:59;101616.22;;;27.66
77789;BMP280;70537;44.384;0.512;2023-09-19T11:54:35;101622.19;;;27.53
77789;BMP280;70537;44.384;0.512;2023-09-19T11:57:05;101608.72;;;27.69
77789;BMP280;70537;44.384;0.512;2023-09-19T11:59:32;101601.66;;;27.78
77789;BMP280;70537;44.384;0.512;2023-09-19T12:02:01;101592.97;;;27.83
77789;BMP280;70537;44.384;0.512;2023-09-19T12:06:59;101578.56;;;27.96
77789;BMP280;70537;44.384;0.512;2023-09-19T12:09:25;101584.50;;;27.62
77789;BMP280;70537;44.384;0.512;2023-09-19T12:11:50;101576.97;;;27.55
77789;BMP280;70537;44.384;0.512;2023-09-19T12:14:26;101584.03;;;27.65
77789;BMP280;70537;44.384;0.512;2023-09-19T12:16:53;101570.19;;;27.96
77789;BMP280;70537;44.384;0.512;2023-09-19T12:19:21;101566.13;;;28.28
77789;BMP280;70537;44.384;0.512;2023-09-19T12:22:01;101570.28;;;28.18
77789;BMP280;70537;44.384;0.512;2023-09-19T12:24:33;101570.16;;;28.16
77789;BMP280;70537;44.384;0.512;2023-09-19T12:27:06;101561.88;;;28.27
77789;BMP280;70537;44.384;0.512;2023-09-19T12:29:43;101557.88;;;27.90
77789;BMP280;70537;44.384;0.512;2023-09-19T12:32:09;101559.38;;;28.32
77789;BMP280;70537;44.384;0.512;2023-09-19T12:34:35;101550.00;;;28.27
77789;BMP280;70537;44.384;0.512;2023-09-19T12:37:14;101551.19;;;28.55
77789;BMP280;70537;44.384;0.512;2023-09-19T12:40:09;101545.41;;;28.63
77789;BMP280;70537;44.384;0.512;2023-09-19T12:42:47;101543.69;;;28.79
77789;BMP280;70537;44.384;0.512;2023-09-19T12:45:14;101535.00;;;28.85
77789;BMP280;70537;44.384;0.512;2023-09-19T12:51:06;101531.28;;;29.25
77789;BMP280;70537;44.384;0.512;2023-09-19T12:53:34;101524.09;;;29.22
77789;BMP280;70537;44.384;0.512;2023-09-19T12:56:05;101517.13;;;29.32
77789;BMP280;70537;44.384;0.512;2023-09-19T12:58:34;101510.09;;;28.89
77789;BMP280;70537;44.384;0.512;2023-09-19T13:01:00;101510.78;;;28.99
77789;BMP280;70537;44.384;0.512;2023-09-19T13:03:28;101511.94;;;29.17
77789;BMP280;70537;44.384;0.512;2023-09-19T13:05:58;101507.56;;;29.47
77789;BMP280;70537;44.384;0.512;2023-09-19T13:08:29;101506.50;;;29.31
77789;BMP280;70537;44.384;0.512;2023-09-19T13:13:39;101495.03;;;29.72
77789;BMP280;70537;44.384;0.512;2023-09-19T13:16:05;101499.28;;;29.49
77789;BMP280;70537;44.384;0.512;2023-09-19T13:18:51;101495.72;;;29.49
77789;BMP280;70537;44.384;0.512;2023-09-19T13:21:28;101488.88;;;29.85
77789;BMP280;70537;44.384;0.512;2023-09-19T13:23:55;101498.19;;;30.36
77789;BMP280;70537;44.384;0.512;2023-09-19T13:26:26;101485.69;;;30.37
77789;BMP280;70537;44.384;0.512;2023-09-19T13:28:57;101490.66;;;30.27
77789;BMP280;70537;44.384;0.512;2023-09-19T13:31:22;101481.91;;;30.70
77789;BMP280;70537;44.384;0.512;2023-09-19T13:33:49;101487.16;;;31.01
77789;BMP280;70537;44.384;0.512;2023-09-19T13:36:15;101491.81;;;30.59
77789;BMP280;70537;44.384;0.512;2023-09-19T13:38:41;101480.63;;;30.85
77789;BMP280;70537;44.384;0.512;2023-09-19T13:41:12;101480.09;;;30.74
77789;BMP280;70537;44.384;0.512;2023-09-19T13:43:39;101480.19;;;30.76
77789;BMP280;70537;44.384;0.512;2023-09-19T13:46:05;101479.47;;;31.01
77789;BMP280;70537;44.384;0.512;2023-09-19T13:48:33;101462.59;;;30.88
77789;BMP280;70537;44.384;0.512;2023-09-19T13:51:02;101465.44;;;30.39
77789;BMP280;70537;44.384;0.512;2023-09-19T13:53:29;101455.28;;;30.08
77789;BMP280;70537;44.384;0.512;2023-09-19T13:55:54;101451.69;;;28.93
77789;BMP280;70537;44.384;0.512;2023-09-19T13:58:21;101449.53;;;29.03
77789;BMP280;70537;44.384;0.512;2023-09-19T14:00:48;101449.63;;;29.26
77789;BMP280;70537;44.384;0.512;2023-09-19T14:03:14;101447.88;;;28.88
77789;BMP280;70537;44.384;0.512;2023-09-19T14:05:39;101445.72;;;28.98
77789;BMP280;70537;44.384;0.512;2023-09-19T14:08:05;101439.47;;;29.21
77789;BMP280;70537;44.384;0.512;2023-09-19T14:10:31;101438.69;;;29.54
77789;BMP280;70537;44.384;0.512;2023-09-19T14:12:57;101435.69;;;29.85
77789;BMP280;70537;44.384;0.512;2023-09-19T14:15:25;101434.22;;;29.60
77789;BMP280;70537;44.384;0.512;2023-09-19T14:17:58;101427.66;;;29.79
77789;BMP280;70537;44.384;0.512;2023-09-19T14:20:24;101428.31;;;29.33
77789;BMP280;70537;44.384;0.512;2023-09-19T14:22:54;101422.41;;;29.50
77789;BMP280;70537;44.384;0.512;2023-09-19T14:25:20;101418.63;;;30.04
77789;BMP280;70537;44.384;0.512;2023-09-19T14:27:47;101411.72;;;29.93
77789;BMP280;70537;44.384;0.512;2023-09-19T14:30:13;101405.88;;;29.43
77789;BMP280;70537;44.384;0.512;2023-09-19T14:32:38;101403.78;;;29.20
77789;BMP280;70537;44.384;0.512;2023-09-19T14:35:06;101398.88;;;29.08
77789;BMP280;70537;44.384;0.512;2023-09-19T14:37:31;101398.97;;;28.23
77789;BMP280;70537;44.384;0.512;2023-09-19T14:39:57;101401.72;;;28.02
77789;BMP280;70537;44.384;0.512;2023-09-19T14:42:22;101402.44;;;28.02
77789;BMP280;70537;44.384;0.512;2023-09-19T14:44:48;101391.69;;;27.77
77789;BMP280;70537;44.384;0.512;2023-09-19T14:47:15;101395.94;;;27.78
77789;BMP280;70537;44.384;0.512;2023-09-19T14:49:42;101384.81;;;27.99
77789;BMP280;70537;44.384;0.512;2023-09-19T14:52:09;101393.75;;;27.26
77789;BMP280;70537;44.384;0.512;2023-09-19T14:54:35;101384.97;;;27.10
77789;BMP280;70537;44.384;0.512;2023-09-19T14:57:00;101379.63;;;27.34
77789;BMP280;70537;44.384;0.512;2023-09-19T14:59:35;101381.72;;;27.24
77789;BMP280;70537;44.384;0.512;2023-09-19T15:02:05;101375.28;;;26.92